Ergebnisliste vom: 07.09.2018 - BrettmŘhlen-Triathlonn2018 - 500-27-4

weitere Ergebnisse >>

Platz Plm Plw StNr. Name,Vorname Verein AK AKm AKw Endzeit Schwimm Radzeit Schw+Rad Laufzeit RŘckst. WB
1 1   93 Jost, Andre OSSV Kamenz M40-49 1   1:04:34 0:06:43( 1 ) 0:42:06( 5 ) 0:48:49( 2 ) 0:15:45( 3 ) 0:00:00 1
2 2   103 Ludwig, Roland Ottendorf Okrilla M18-29 1   1:05:19 0:09:22( 25 ) 0:39:26( 1 ) 0:48:48( 1 ) 0:16:31( 8 ) 0:00:45 1
3 3   63 Schliwa, Erik Team Tempus M30-39 1   1:06:30 0:08:07( 7 ) 0:41:49( 2 ) 0:49:56( 3 ) 0:16:34( 9 ) 0:01:56 1
4 4   114 Gl├Ąser, Sven Radebeul M30-39 2   1:06:44 0:08:53( 20 ) 0:41:54( 3 ) 0:50:47( 6 ) 0:15:57( 5 ) 0:02:10 1
5 5   21 Herkner, Norbert Bautzner LV Rot-Wei├č 90 M18-29 2   1:07:01 0:08:34( 11 ) 0:42:55( 9 ) 0:51:29( 12 ) 0:15:32( 1 ) 0:02:27 1
6 6   17 G├╝nther, Marcus SV Burkhardtsgr├╝n M30-39 3   1:07:21 0:08:39( 12 ) 0:42:08( 6 ) 0:50:47( 6 ) 0:16:34( 9 ) 0:02:47 1
7 7   81 Witke, Thomas Dresden M50-59 1   1:07:30 0:08:10( 9 ) 0:41:56( 4 ) 0:50:06( 5 ) 0:17:24( 18 ) 0:02:56 1
8 8   38 Lindig, Thomas SV Elbland Coswig-Mei├čen M40-49 2   1:07:57 0:08:32( 10 ) 0:43:49( 14 ) 0:52:21( 13 ) 0:15:36( 2 ) 0:03:23 1
9 9   94 Schneider, Philipp Chemnitz M18-29 3   1:08:35 0:07:53( 5 ) 0:43:31( 10 ) 0:51:24( 9 ) 0:17:11( 15 ) 0:04:01 1
10 10   85 K├╝rbis, Karsten TuS Neuk├Âlln Berlin M30-39 4   1:08:52 0:09:12( 23 ) 0:43:37( 11 ) 0:52:49( 14 ) 0:16:03( 6 ) 0:04:18 1
11 11   6 Berger, Marek STV Limbach-Oberfrohna M40-49 3   1:09:18 0:08:43( 15 ) 0:42:08( 6 ) 0:50:51( 8 ) 0:18:27( 33 ) 0:04:44 1
12 12   48 M├╝ller, Jiri StVo Limbach-Oberfrohna M50-59 2   1:09:55 0:07:39( 4 ) 0:43:49( 12 ) 0:51:28( 10 ) 0:18:27( 33 ) 0:05:21 1
13 13   122 Vogel, Steffen Pirna M40-49 4   1:10:01 0:08:07( 7 ) 0:46:09( 39 ) 0:54:16( 23 ) 0:15:45( 4 ) 0:05:27 1
14 14   84 Berger, Torsten Niederschlesien Triathlon Team M40-49 5   1:10:09 0:07:54( 6 ) 0:42:08( 8 ) 0:50:02( 4 ) 0:20:07( 64 ) 0:05:35 1
15 15   98 Ritter, Uwe Sarpei Golden Five M30-39 5   1:10:40 0:08:59( 21 ) 0:45:06( 23 ) 0:54:05( 20 ) 0:16:35( 11 ) 0:06:06 1
16 16   109 Klameth, Andreas MultiSportFreunde Wei├čeritztal e.V. M40-49 6   1:10:46 0:09:15( 24 ) 0:44:13( 17 ) 0:53:28( 16 ) 0:17:18( 17 ) 0:06:12 1
17 17   44 Melech, Andr├ę SV Burkhardtsgr├╝n M40-49 7   1:11:22 0:07:24( 2 ) 0:44:04( 16 ) 0:51:28( 10 ) 0:19:54( 60 ) 0:06:48 1
18 18   79 Winkler, Lars Team Abduschaparow M40-49 8   1:11:29 0:08:42( 14 ) 0:44:49( 20 ) 0:53:31( 17 ) 0:17:58( 24 ) 0:06:55 1
19 19   55 Peschel, Thomas RC 1898 Radeberg M50-59 3   1:11:48 0:09:30( 31 ) 0:44:35( 18 ) 0:54:05( 20 ) 0:17:43( 23 ) 0:07:14 1
20 20   95 Wolff, Stefan LG Priestewitz M30-39 6   1:12:08 0:10:13( 48 ) 0:45:10( 24 ) 0:55:23( 26 ) 0:16:45( 12 ) 0:07:34 1
21 21   27 Kahl, Torsten SC DHfK Leipzig M40-49 9   1:12:22 0:08:41( 13 ) 0:44:55( 22 ) 0:53:36( 19 ) 0:18:46( 41 ) 0:07:48 1
22 22   121 Kurth, Michael Dresden M30-39 7   1:12:25 0:09:46( 37 ) 0:43:49( 12 ) 0:53:35( 18 ) 0:18:50( 43 ) 0:07:51 1
23 23   52 Oelrich, Gerald OSH Dresden M40-49 10   1:13:15 0:09:46( 37 ) 0:46:17( 40 ) 0:56:03( 35 ) 0:17:12( 16 ) 0:08:41 1
24 24   89 Albertziok, Marc Offizierschule des Heeres Dresden M40-49 11   1:13:17 0:10:12( 47 ) 0:46:57( 52 ) 0:57:09( 50 ) 0:16:08( 7 ) 0:08:43 1
25 25   88 Mutke, Thomas E-Bike Dresden M50-59 4   1:13:36 0:09:24( 26 ) 0:43:51( 15 ) 0:53:15( 15 ) 0:20:21( 69 ) 0:09:02 1
26 26   32 K├╝ttner, Jens Sportfreunde Ottendorf-Okrilla M40-49 12   1:13:44 0:10:33( 58 ) 0:45:37( 30 ) 0:56:10( 39 ) 0:17:34( 21 ) 0:09:10 1
27 27   12 G├Ąbler, Denis Glutaeus Maximus M40-49 13   1:13:47 0:09:39( 33 ) 0:45:52( 34 ) 0:55:31( 27 ) 0:18:16( 28 ) 0:09:13 1
28 28   11 Fritze, Benjamin Team GangDasGnu M30-39 8   1:13:53 0:07:33( 3 ) 0:48:42( 60 ) 0:56:15( 41 ) 0:17:38( 22 ) 0:09:19 1
29 29   40 Lohe, Dirk TV WeinGut Faust M40-49 14   1:14:00 0:08:47( 18 ) 0:46:46( 46 ) 0:55:33( 28 ) 0:18:27( 32 ) 0:09:26 1
29 29   112 Lattner, Tobias KV-Schwerelos M40-49 14   1:14:00 0:09:59( 41 ) 0:45:35( 27 ) 0:55:34( 29 ) 0:18:26( 31 ) 0:09:26 1
31 31   65 Schnurr, Robert Dresden M30-39 9   1:14:06 0:09:28( 30 ) 0:45:36( 29 ) 0:55:04( 24 ) 0:19:02( 46 ) 0:09:32 1
32   1 73 Uhlig, Ines Skiklub Dresden W40-49   1 1:14:08 0:10:05( 43 ) 0:45:59( 37 ) 0:56:04( 36 ) 0:18:04( 25 ) 0:09:34 1
33 32   108 Schiffner, Kent Sportfreunde Ottendorf-Okrilla M40-49 16   1:14:23 0:10:26( 55 ) 0:45:29( 25 ) 0:55:55( 32 ) 0:18:28( 37 ) 0:09:49 1
34 33   15 G├╝nther, Ingo FC Erzgebirge Aue Abteilung Ski M50-59 5   1:14:35 0:10:26( 55 ) 0:45:41( 32 ) 0:56:07( 37 ) 0:18:28( 36 ) 0:10:01 1
35 34   69 Thieme, Andreas AS37 M40-49 17   1:14:42 0:10:06( 44 ) 0:46:26( 43 ) 0:56:32( 47 ) 0:18:10( 26 ) 0:10:08 1
36 35   47 M├╝ller, Andreas VfA endLOS Dresden M40-49 18   1:14:53 0:09:44( 35 ) 0:45:30( 26 ) 0:55:14( 25 ) 0:19:39( 58 ) 0:10:19 1
37 36   37 Liepelt, Adolf endlos VfA M50-59 6   1:15:02 0:10:18( 50 ) 0:45:40( 31 ) 0:55:58( 33 ) 0:19:04( 48 ) 0:10:28 1
38 37   9 Bruhns, Marco Ruhland M40-49 19   1:15:05 0:10:19( 51 ) 0:46:05( 38 ) 0:56:24( 43 ) 0:18:41( 40 ) 0:10:31 1
39 38   117 Robert, Nicol BLV Rot-Wei├č 90 M40-49 20   1:15:15 0:09:26( 28 ) 0:44:47( 19 ) 0:54:13( 22 ) 0:21:02( 78 ) 0:10:41 1
40 39   111 Heinrich, Bernd Tri Team Senftenberg M50-59 7   1:15:16 0:10:23( 52 ) 0:45:59( 36 ) 0:56:22( 42 ) 0:18:54( 45 ) 0:10:42 1
41   2 39 Lindig, Katrin SV Elbland Coswig-Mei├čen W40-49   2 1:15:20 0:00:00 0:00:00 0:57:56( 55 ) 0:17:24( 18 ) 0:10:46 1
42 40   51 M├╝tze, Sven Sportfreunde O.O. M40-49 21   1:15:25 0:09:25( 27 ) 0:46:47( 47 ) 0:56:12( 40 ) 0:19:13( 50 ) 0:10:51 1
43 41   82 Wittwer, Frank K & F Wittwer Dienstleistungsservice M50-59 8   1:15:59 0:11:00( 75 ) 0:47:30( 57 ) 0:58:30( 58 ) 0:17:29( 20 ) 0:11:25 1
44 42   50 Mutzke, Thomas Wei├čig am Rasch├╝tz M40-49 22   1:16:02 0:10:27( 57 ) 0:47:23( 55 ) 0:57:50( 54 ) 0:18:12( 27 ) 0:11:28 1
45 43   53 Olbrich, Matthias SG B├╝hlau 2009 M30-39 10   1:16:03 0:09:35( 32 ) 0:46:55( 51 ) 0:56:30( 45 ) 0:19:33( 57 ) 0:11:29 1
46 44   28 Kindler, Kay-Michael   M40-49 23   1:16:04 0:11:19( 87 ) 0:44:49( 21 ) 0:56:08( 38 ) 0:19:56( 62 ) 0:11:30 1
47 45   115 Kafka, Jens Moritzburger TV M50-59 9   1:16:17 0:10:25( 53 ) 0:46:25( 42 ) 0:56:50( 49 ) 0:19:27( 54 ) 0:11:43 1
48 46   58 Rothe, Jens Der Baumspezi M30-39 11   1:16:21 0:10:06( 44 ) 0:45:44( 33 ) 0:55:50( 31 ) 0:20:31( 71 ) 0:11:47 1
49   3 92 Rosin, Ariane Moritzburg W30-39   1 1:16:35 0:10:25( 53 ) 0:45:35( 27 ) 0:56:00( 34 ) 0:20:35( 73 ) 0:12:01 1
50 47   97 Pfeifer, Ulrich TSV 1848 Fl├Âha M60+ 1   1:16:44 0:11:06( 81 ) 0:46:51( 49 ) 0:57:57( 56 ) 0:18:47( 42 ) 0:12:10 1
51 48   61 Scheibner, Peter SG Adelsberg M50-59 10   1:16:50 0:10:39( 63 ) 0:45:57( 35 ) 0:56:36( 48 ) 0:20:14( 66 ) 0:12:16 1
52 49   71 Thiere, Bastian   M30-39 12   1:16:52 0:11:12( 85 ) 0:46:47( 47 ) 0:57:59( 57 ) 0:18:53( 44 ) 0:12:18 1
53 50   13 Gro├čmann, Kai Welxande M40-49 24   1:16:53 0:09:05( 22 ) 0:47:21( 54 ) 0:56:26( 44 ) 0:20:27( 70 ) 0:12:19 1
54 51   102 Weiske, Martin Torpedo Friedrichstadt M40-49 25   1:16:59 0:10:56( 71 ) 0:46:35( 45 ) 0:57:31( 52 ) 0:19:28( 55 ) 0:12:25 1
55 52   77 Werner, Thomas Friedewald M50-59 11   1:17:23 0:11:05( 79 ) 0:46:24( 41 ) 0:57:29( 51 ) 0:19:54( 60 ) 0:12:49 1
56 53   64 Schumann, Rico Laufgruppe Dresden M18-29 4   1:17:31 0:10:10( 46 ) 0:49:02( 63 ) 0:59:12( 61 ) 0:18:19( 29 ) 0:12:57 1
57 54   118 K├Âbe, Silvio SF M├╝hlberg M40-49 26   1:18:09 0:10:58( 73 ) 0:47:57( 59 ) 0:58:55( 60 ) 0:19:14( 51 ) 0:13:35 1
58 55   43 Maywald, Konrad SG Klotzsche M16-17 1   1:18:34 0:09:26( 28 ) 0:49:05( 64 ) 0:58:31( 59 ) 0:20:03( 63 ) 0:14:00 1
59 56   33 Leubner, Jens KWD M30-39 13   1:18:46 0:10:39( 63 ) 0:47:10( 53 ) 0:57:49( 53 ) 0:20:57( 77 ) 0:14:12 1
60 57   35 Liebmann, Wieland Mei├čen M50-59 12   1:19:09 0:09:58( 40 ) 0:46:32( 44 ) 0:56:30( 45 ) 0:22:39( 93 ) 0:14:35 1
61 58   25 H├╝bner, Stephan USV TU Dresden M50-59 13   1:19:11 0:10:52( 68 ) 0:49:42( 68 ) 1:00:34( 68 ) 0:18:37( 39 ) 0:14:37 1
62 59   68 Thate, Falko SF M├╝hlberg M30-39 14   1:19:29 0:10:38( 62 ) 0:49:39( 67 ) 1:00:17( 66 ) 0:19:12( 49 ) 0:14:55 1
63   4 113 Kandler, Ute Radebeul W30-39   2 1:19:31 0:10:59( 74 ) 0:49:00( 61 ) 0:59:59( 65 ) 0:19:32( 56 ) 0:14:57 1
64 60   96 Krause, Tobias Speedskate-Club Mei├čen M16-17 2   1:19:41 0:10:54( 69 ) 0:49:29( 66 ) 1:00:23( 67 ) 0:19:18( 52 ) 0:15:07 1
65   5 16 G├╝nther, Susann FC Erzgebirge Aue Abteilung Ski W40-49   3 1:20:17 0:11:35( 93 ) 0:50:11( 70 ) 1:01:46( 71 ) 0:18:31( 38 ) 0:15:43 1
66 61   67 St├Ârmer, Andreas MultiSportFreunde Wei├čeritztal e.V. M30-39 15   1:20:31 0:11:18( 86 ) 0:47:55( 58 ) 0:59:13( 62 ) 0:21:18( 80 ) 0:15:57 1
67 62   20 Hensel, Carsten SV Burkhardtsgr├╝n M50-59 14   1:20:58 0:08:45( 17 ) 0:46:52( 50 ) 0:55:37( 30 ) 0:25:21(110) 0:16:24 1
68 63   31 K├╝mmel, Steffen FV Gr├Âditz M50-59 15   1:22:11 0:12:09(103) 0:47:29( 56 ) 0:59:38( 63 ) 0:22:33( 91 ) 0:17:37 1
69 64   2 Belau, Christian   M30-39 16   1:22:34 0:10:57( 72 ) 0:49:00( 61 ) 0:59:57( 64 ) 0:22:37( 92 ) 0:18:00 1
70 65   124 Walter, Roman Sch├Ânfeld M30-39 17   1:22:35 0:12:06(101) 0:49:27( 65 ) 1:01:33( 70 ) 0:21:02( 78 ) 0:18:01 1
71 66   91 Biedermann, David SSC Mei├čen M18-29 5   1:22:57 0:11:02( 76 ) 0:52:52( 84 ) 1:03:54( 84 ) 0:19:03( 47 ) 0:18:23 1
72   6 59 Rothe, Lisa Weinb├Âhla W30-39   3 1:23:27 0:00:00 0:00:00 1:05:00( 89 ) 0:18:27( 35 ) 0:18:53 1
73 67   126 Kuhnert, David   M30-39 18   1:23:28 0:11:03( 77 ) 0:51:33( 73 ) 1:02:36( 73 ) 0:20:52( 76 ) 0:18:54 1
74 68   30 Kr├╝ger, Christoph   M30-39 19   1:23:31 0:12:03(100) 0:54:26( 93 ) 1:06:29( 98 ) 0:17:02( 14 ) 0:18:57 1
75   7 10 Clau├č, Silke Moritzburger Triathlonverein W50-59   1 1:23:35 0:11:29( 89 ) 0:52:16( 77 ) 1:03:45( 83 ) 0:19:50( 59 ) 0:19:01 1
76 69   46 M├╝ller, Andreas Breitensportlegende M18-29 6   1:23:41 0:11:20( 88 ) 0:53:58( 89 ) 1:05:18( 95 ) 0:18:23( 30 ) 0:19:07 1
77 70   101 Neitzel, Mirko SC Riesa Triathlon M40-49 27   1:23:43 0:11:08( 82 ) 0:52:17( 78 ) 1:03:25( 79 ) 0:20:18( 68 ) 0:19:09 1
78 71   74 Weder, David   M30-39 20   1:23:44 0:11:53( 97 ) 0:50:31( 71 ) 1:02:24( 72 ) 0:21:20( 81 ) 0:19:10 1
79 72   3 Bellmann, Mirko FV Dresden 06 Laubegast M40-49 28   1:23:58 0:10:41( 66 ) 0:53:53( 88 ) 1:04:34( 86 ) 0:19:24( 53 ) 0:19:24 1
80   8 119 Hofmann, Katrin TSV Dresden W50-59   2 1:24:07 0:10:44( 67 ) 0:52:49( 82 ) 1:03:33( 82 ) 0:20:34( 72 ) 0:19:33 1
81   9 100 Enke, Andrea SSV Blau-Wei├č-Gersdorf W50-59   3 1:24:14 0:08:43( 15 ) 0:52:45( 81 ) 1:01:28( 69 ) 0:22:46( 95 ) 0:19:40 1
82   10 62 Schlitter, Luisa BLV Rot-Wei├č 90 e.V. W30-39   4 1:24:28 0:10:40( 65 ) 0:52:17( 78 ) 1:02:57( 77 ) 0:21:31( 83 ) 0:19:54 1
83 73   24 Hormanski, Piotr Polonia-Dresden e.V. M30-39 21   1:25:16 0:10:36( 60 ) 0:54:04( 91 ) 1:04:40( 88 ) 0:20:36( 74 ) 0:20:42 1
84 74   80 Wisniewski, Mateusz Polonia-Dresden e.V. M18-29 7   1:25:27 0:11:10( 84 ) 0:54:02( 90 ) 1:05:12( 93 ) 0:20:15( 67 ) 0:20:53 1
85 75   18 Gursinsky, Frank TSV Reichenberg M50-59 16   1:25:50 0:12:31(108) 0:50:57( 72 ) 1:03:28( 81 ) 0:22:22( 89 ) 0:21:16 1
86 76   23 Hiemann, Rico Sacka M30-39 22   1:25:56 0:10:14( 49 ) 0:54:22( 92 ) 1:04:36( 87 ) 0:21:20( 81 ) 0:21:22 1
87 77   110 Sowa, Daniel Moritzburger Triathlonverein M40-49 29   1:26:03 0:10:55( 70 ) 0:52:23( 80 ) 1:03:18( 78 ) 0:22:45( 94 ) 0:21:29 1
88 78   8 Billhardt, Sven   M50-59 17   1:26:11 0:11:05( 79 ) 0:51:49( 76 ) 1:02:54( 76 ) 0:23:17( 97 ) 0:21:37 1
89 79   125 Pauli, Carsten Die Paulizei M30-39 23   1:26:25 0:11:08( 82 ) 0:51:37( 74 ) 1:02:45( 75 ) 0:23:40(103) 0:21:51 1
90 80   107 Klessig, Hans-Peter SV D├Âbeln M50-59 18   1:26:30 0:12:22(106) 0:51:47( 75 ) 1:04:09( 85 ) 0:22:21( 88 ) 0:21:56 1
91   11 42 Marquardt, Evelyn Aktives Deutschland e.V. W30-39   5 1:27:05 0:08:52( 19 ) 0:56:23( 98 ) 1:05:15( 94 ) 0:21:50( 84 ) 0:22:31 1
92 81   123 Walter, Sebastian   M30-39 24   1:27:12 0:13:22(114) 0:53:05( 86 ) 1:06:27( 97 ) 0:20:45( 75 ) 0:22:38 1
93 82   45 Miene, Steffen SSV Zabeltitz e.V. M30-39 25   1:28:13 0:13:16(112) 0:50:10( 69 ) 1:03:26( 80 ) 0:24:47(109) 0:23:39 1
94   12 14 Gro├čmann, Ines Welxande W30-39   6 1:28:30 0:09:42( 34 ) 0:55:20( 95 ) 1:05:02( 90 ) 0:23:28(102) 0:23:56 1
95   13 87 Kurtz, Sandi Dresden W30-39   7 1:28:31 0:09:47( 39 ) 0:55:23( 96 ) 1:05:10( 91 ) 0:23:21( 99 ) 0:23:57 1
96 83   104 Badura, Mathias Bannewitz M60+ 2   1:29:06 0:12:21(105) 0:52:50( 83 ) 1:05:11( 92 ) 0:23:55(104) 0:24:32 1
97   14 49 M├╝ller, Lisa   W30-39   8 1:29:17 0:10:35( 59 ) 0:56:49(100) 1:07:24( 99 ) 0:21:53( 85 ) 0:24:43 1
98   15 22 Heyn, Antje Team Abduschaparow W30-39   9 1:30:10 0:12:02( 99 ) 0:53:28( 87 ) 1:05:30( 96 ) 0:24:40(107) 0:25:36 1
99 84   4 Benndorf, Michael Mein erstes Mal M40-49 30   1:30:22 0:00:00 0:00:00 1:07:52(100) 0:22:30( 90 ) 0:25:48 1
100   16 66 Sowa, Mandy Heimatsportler Hoyerswerda W30-39   10 1:30:39 0:11:44( 95 ) 0:56:49(100) 1:08:33(105) 0:22:06( 86 ) 0:26:05 1
101   17 56 Refle, Dalia Marie   W16-17   1 1:31:05 0:10:36( 60 ) 0:57:38(103) 1:08:14(102) 0:22:51( 96 ) 0:26:31 1
102   18 5 Benndorf, Irina Mein erstes Mal W40-49   4 1:31:12 0:11:34( 92 ) 0:56:18( 97 ) 1:07:52(100) 0:23:20( 98 ) 0:26:38 1
103 85   29 Kollock, Dr. Ronny Die KamiKatzen M40-49 31   1:31:26 0:11:33( 91 ) 1:03:00(110) 1:14:33(112) 0:16:53( 13 ) 0:26:52 1
104   19 70 Thieme, Eva AS37 W30-39   11 1:32:17 0:10:02( 42 ) 0:58:17(104) 1:08:19(104) 0:23:58(105) 0:27:43 1
105   20 34 Leuschke, Yvette SV Burkhardtsgr├╝n W40-49   5 1:34:40 0:11:40( 94 ) 0:56:58(102) 1:08:38(106) 0:26:02(113) 0:30:06 1
106 86   99 Krause, Roland Dresden M60+ 3   1:35:01 0:09:45( 36 ) 0:52:59( 85 ) 1:02:44( 74 ) 0:32:17(120) 0:30:27 1
107 87   120 Ruiz, Hector   M30-39 26   1:35:58 0:19:12(119) 0:54:29( 94 ) 1:13:41(109) 0:22:17( 87 ) 0:31:24 1
108 88   86 F├Ârster, Frank Mei├čen M40-49 32   1:36:49 0:12:23(107) 0:59:40(105) 1:12:03(107) 0:24:46(108) 0:32:15 1
109 89   57 Reschke, Sebastian TuS Coswig 1920 e.V. M30-39 27   1:36:55 0:12:52(109) 1:00:36(106) 1:13:28(108) 0:23:27(101) 0:32:21 1
110   21 54 Palfi, Edelgard MSV Meusegast W60+   1 1:37:45 0:12:14(104) 1:02:07(107) 1:14:21(111) 0:23:24(100) 0:33:11 1
111 90   41 Markiert, Johannes Breitensport M18-29 8   1:37:51 0:11:31( 90 ) 0:56:44( 99 ) 1:08:15(103) 0:29:36(117) 0:33:17 1
112   22 60 Scheibe, Anja AS37 W30-39   12 1:38:16 0:11:52( 96 ) 1:02:18(108) 1:14:10(110) 0:24:06(106) 0:33:42 1
113 91   76 Weise, Daniel   M30-39 28   1:39:04 0:13:33(115) 1:05:20(115) 1:18:53(118) 0:20:11( 65 ) 0:34:30 1
114   23 78 Werner, Christin   W50-59   4 1:40:20 0:12:06(101) 1:02:45(109) 1:14:51(114) 0:25:29(111) 0:35:46 1
115   24 105 Martin, Cathleen Dresden W40-49   6 1:41:16 0:11:04( 78 ) 1:03:33(112) 1:14:37(113) 0:26:39(114) 0:36:42 1
116   25 83 Worm, Anett   W30-39   13 1:41:57 0:13:18(113) 1:03:04(111) 1:16:22(115) 0:25:35(112) 0:37:23 1
117 92   7 Bieder, Lars SPARTAK G. M40-49 33   1:45:50 0:13:13(110) 1:03:58(114) 1:17:11(116) 0:28:39(116) 0:41:16 1
118 93   1 Beier, Michael SPARTAK G. M40-49 34   1:47:28 0:13:15(111) 1:03:57(113) 1:17:12(117) 0:30:16(118) 0:42:54 1
119   26 90 Hornemann, Ina SSC Mei├čen W50-59   5 1:49:36 0:15:01(117) 1:06:56(116) 1:21:57(120) 0:27:39(115) 0:45:02 1
120 94   72 Thumernicht, Carsten Sport- und Freizeittreff Dresden-G├Ânnsdorf M30-39 29   1:52:47 0:11:59( 98 ) 1:09:37(118) 1:21:36(119) 0:31:11(119) 0:48:13 1
121   27 106 Jahnke, Beatrix Dresden W40-49   7 1:56:26 0:13:45(116) 1:09:04(117) 1:22:49(121) 0:33:37(121) 0:51:52 1
122 95   116 Seelig, Melik Dresden M18-29 9   2:08:24 0:16:20(118) 1:17:24(119) 1:33:44(122) 0:34:40(122) 1:03:50 1
(c) 1990-2012 Blue Wonder Sport Promotion - Andreas Burow - Zeitnahme & Auswertung - www.Triathlon-Service.de